Weather observations for the past three days for
Ciudad Juarez International
Imperial (Metric)
Date Time (cdt) Wind (mph) Vis. (mi.) Weather Sky Cond. Temperature (ºF) Relative Humidity Wind Chill (°F) Heat Index (°F) Pressure Precipitation (in)
Air Dwpt 6 hour altimeter (in) sea level (mb) 1 hr 3 hr 6 hr
Max. Min.
31 17:40 S 6 10.00 A Few Clouds FEW050TCU 100.4 46.4 16% 97 29.96 0.0
31 16:40 Calm 10.00 A Few Clouds FEW050TCU 95 48.2 20% 92 29.99 0.0
31 15:40 N 3 10.00 A Few Clouds FEW050TCU 96.8 51.8 22% 94 30.02 1002.3
31 14:40 E 5 10.00 Mostly Cloudy BKN050 96.8 51.8 22% 94 30.05 0.0
31 13:40 Calm 10.00 A Few Clouds FEW050 95 53.6 25% 93 30.07 0.0
31 12:40 Calm 10.00 A Few Clouds FEW050 91.4 53.6 28% 89 30.09 1004.4
31 11:41 NW 5 10.00 A Few Clouds FEW050 89.6 53.6 29% 87 30.1 0.0
31 10:40 NW 12 10.00 A Few Clouds FEW050 86 53.6 33% 84 30.1 0.0
31 09:40 W 8 10.00 A Few Clouds FEW050 84.2 53.6 35% 83 30.09 1004.4
31 08:40 W 9 10.00 A Few Clouds FEW050 78.8 53.6 42% 79 30.07 0.0
31 06:40 SW 8 10.00 Clear SKC 77 48.2 36% 78 30.03 1002.7
30 21:40 Calm 10.00 Clear SKC 91.4 44.6 20% 88 29.98 1001.2
30 20:40 E 3 10.00 Clear SKC 95 42.8 16% 91 29.97 0.0
30 19:40 NE 3 10.00 A Few Clouds FEW050 FEW200 96.8 42.8 16% 93 29.97 0.0
30 18:40 NE 7 10.00 A Few Clouds FEW050 FEW200 98.6 44.6 16% 95 29.97 1000.6
30 17:40 NW 6 10.00 A Few Clouds FEW050 FEW200 98.6 46.4 17% 95 29.99 0.0
30 16:40 SW 6 10.00 Partly Cloudy SCT050 100.4 46.4 16% 97 30.01 0.0
30 15:40 N 5 10.00 A Few Clouds FEW050 98.6 48.2 18% 95 30.04 1002.9
30 14:48 SW 6 10.00 A Few Clouds FEW050 98.6 50 19% 95 30.07 0.0
30 13:40 SW 5 10.00 A Few Clouds FEW200 95 51.8 23% 92 30.09 0.0
30 12:40 S 6 10.00 Clear SKC 93.2 51.8 24% 90 30.12 1005.0
30 11:40 S 7 10.00 Clear SKC 87.8 51.8 29% 85 30.13 0.0
30 10:40 SW 5 10.00 Clear SKC 84.2 51.8 33% 82 30.13 0.0
30 09:44 S 7 10.00 A Few Clouds FEW050 82.4 48.2 30% 81 30.13 1005.9
30 08:42 Calm 10.00 Partly Cloudy SCT050 77 50 39% 78 30.12 0.0
30 06:40 Calm 8.00 A Few Clouds FEW100 77 48.2 36% 78 30.1 1004.8
29 21:40 SE 6 10.00 Clear SKC 93.2 48.2 21% 90 30.04 1003.0
29 20:40 E 8 10.00 Clear SKC 93.2 50 23% 90 30.02 0.0
29 19:40 SE 9 10.00 A Few Clouds FEW050 95 50 22% 92 30.03 0.0
29 18:40 SE 9 10.00 A Few Clouds FEW050 98.6 46.4 17% 95 30.03 1002.6
29 17:40 SE 5 10.00 A Few Clouds FEW050TCU 98.6 48.2 18% 95 30.05 0.0
29 16:40 NE 8 10.00 A Few Clouds FEW050TCU 98.6 46.4 17% 95 30.07 0.0
29 15:40 NE 3 10.00 A Few Clouds FEW050TCU 96.8 46.4 18% 93 30.1 1005.1
29 14:41 SE 6 10.00 Partly Cloudy SCT050 96.8 48.2 19% 93 30.13 0.0
29 13:40 E 6 10.00 A Few Clouds FEW050 95 51.8 23% 92 30.16 0.0
29 12:40 E 5 10.00 A Few Clouds FEW050 93.2 55.4 28% 91 30.19 1007.2
29 11:40 E 6 10.00 A Few Clouds FEW050 89.6 55.4 31% 88 30.2 0.0
29 10:40 SE 5 10.00 A Few Clouds FEW070 86 55.4 35% 85 30.21 0.0
29 09:40 E 5 10.00 A Few Clouds FEW070 82.4 53.6 37% 81 30.21 1008.1
29 08:41 Calm 10.00 A Few Clouds FEW080 78.8 53.6 42% 79 30.2 0.0
29 06:40 Calm 10.00 Clear SKC 77 50 39% 78 30.17 1007.4
28 21:40 Calm 10.00 Clear SKC 91.4 48.2 23% 88 30.1 1005.1
28 20:40 E 7 10.00 Partly Cloudy FEW050 SCT200 95 48.2 20% 92 30.08 0.0
28 19:40 E 8 10.00 A Few Clouds FEW050 FEW200 96.8 44.6 17% 93 30.08 0.0
28 18:40 Calm 10.00 A Few Clouds FEW050 FEW200 96.8 42.8 16% 93 30.09 1004.6
Date Time (cdt) Wind (mph) Vis. (mi.) Weather Sky Cond. Air Dwpt Max. Min. Relative Humidity Wind Chill (°F) Heat Index (°F) altimeter (in) sea level (mb) 1 hr 3 hr 6 hr
6 hour
Temperature (ºF) Pressure Precipitation (in)